Time;durP1;ratioP1;P1;durP2;ratioP2;P2;SDS_P1;SDS_P2;PMS_P1;PMS_P2;Temp;Humidity;BMP_temperature;BMP_pressure;BME280_temperature;BME280_humidity;BME280_pressure;Samples;Min_cycle;Max_cycle;Signal;HPM_P1;HPM_P2
2022/05/28 00:01:27;;;;;;;;;;;;;;;;;;5063288;28;19908;-58
2022/05/28 00:03:57;;;;;;;;;;;;;;;;;;5063282;28;19912;-57
2022/05/28 00:06:24;;;;;;;;;;;;;;;;;;5065227;28;19912;-58
2022/05/28 00:08:50;;;;;;;;;;;;;;;;;;5063819;28;19913;-57
2022/05/28 00:11:16;;;;;;;;;;;;;;;;;;5060151;28;19909;-57
2022/05/28 00:13:41;;;;;;;;;;;;;;;;;;5064343;28;19912;-57
2022/05/28 00:16:08;;;;;;;;;;;;;;;;;;5061388;28;20029;-57
2022/05/28 00:18:37;;;;;;;;;;;;;;;;;;5064068;28;20278;-57
2022/05/28 00:21:02;;;;;;;;;;;;;;;;;;5067021;28;19912;-57
2022/05/28 00:23:28;;;;;;;;;;;;;;;;;;5066098;28;19915;-57
2022/05/28 00:25:54;;;;;;;;;;;;;;;;;;5067042;28;19908;-57
2022/05/28 00:28:21;;;;;;;;;;;;;;;;;;5067118;28;19904;-57
2022/05/28 00:30:47;;;;;;;;;;;;;;;;;;5066872;28;20373;-57
2022/05/28 00:33:13;;;;;;;;;;;;;;;;;;5065106;28;19927;-57
2022/05/28 00:35:39;;;;;;;;;;;;;;;;;;5067085;28;19908;-57
2022/05/28 00:38:05;;;;;;;;;;;;;;;;;;5066279;28;20057;-57
2022/05/28 00:40:31;;;;;;;;;;;;;;;;;;5066650;28;19911;-57
2022/05/28 00:42:56;;;;;;;;;;;;;;;;;;5067016;28;19901;-57
2022/05/28 00:45:22;;;;;;;;;;;;;;;;;;5066607;28;19916;-57
2022/05/28 00:47:48;;;;;;;;;;;;;;;;;;5065896;28;19912;-57
2022/05/28 00:50:14;;;;;;;;;;;;;;;;;;5066598;28;19905;-57
2022/05/28 00:52:40;;;;;;;;;;;;;;;;;;5065653;28;19912;-57
2022/05/28 00:55:06;;;;;;;;;;;;;;;;;;5066710;28;19995;-57
2022/05/28 00:57:32;;;;;;;;;;;;;;;;;;5066557;28;19907;-57
2022/05/28 00:59:58;;;;;;;;;;;;;;;;;;5066697;28;19908;-57
2022/05/28 01:02:24;;;;;;;;;;;;;;;;;;5066635;28;19999;-57
2022/05/28 01:04:50;;;;;;;;;;;;;;;;;;5066855;28;20019;-57
2022/05/28 01:07:16;;;;;;;;;;;;;;;;;;5066375;28;19963;-57
2022/05/28 01:09:44;;;;;;;;;;;;;;;;;;5066400;28;20310;-57
2022/05/28 01:12:10;;;;;;;;;;;;;;;;;;5066319;28;19954;-57
2022/05/28 01:14:36;;;;;;;;;;;;;;;;;;5065468;28;19908;-57
2022/05/28 01:17:03;;;;;;;;;;;;;;;;;;5066659;28;20275;-57
2022/05/28 01:19:29;;;;;;;;;;;;;;;;;;5066048;28;19962;-57
2022/05/28 01:21:55;;;;;;;;;;;;;;;;;;5066568;28;19908;-57
2022/05/28 01:24:21;;;;;;;;;;;;;;;;;;5066872;28;19904;-57
2022/05/28 01:26:46;;;;;;;;;;;;;;;;;;5066922;28;19931;-57
2022/05/28 01:29:12;;;;;;;;;;;;;;;;;;5063412;28;19912;-57
2022/05/28 01:31:39;;;;;;;;;;;;;;;;;;5066178;28;19908;-57
2022/05/28 01:34:05;;;;;;;;;;;;;;;;;;5067179;28;20283;-57
2022/05/28 01:36:31;;;;;;;;;;;;;;;;;;5069023;28;20007;-57
2022/05/28 01:38:57;;;;;;;;;;;;;;;;;;5069944;28;19983;-57
2022/05/28 01:41:23;;;;;;;;;;;;;;;;;;5070076;28;19912;-57
2022/05/28 01:43:49;;;;;;;;;;;;;;;;;;5070496;28;19994;-57
2022/05/28 01:46:15;;;;;;;;;;;;;;;;;;5068771;28;20020;-57
2022/05/28 01:48:41;;;;;;;;;;;;;;;;;;5069493;28;19908;-57
2022/05/28 01:51:07;;;;;;;;;;;;;;;;;;5069152;28;19909;-57
2022/05/28 01:56:18;;;;;;;;;;;;;;;;;;5070553;28;19939;-57
2022/05/28 01:58:45;;;;;;;;;;;;;;;;;;5069381;28;19924;-57
2022/05/28 02:01:10;;;;;;;;;;;;;;;;;;5069824;28;19977;-57
2022/05/28 02:03:36;;;;;;;;;;;;;;;;;;5067388;28;19919;-57
2022/05/28 02:06:02;;;;;;;;;;;;;;;;;;5069769;28;19908;-57
2022/05/28 02:08:28;;;;;;;;;;;;;;;;;;5069561;28;19908;-57
2022/05/28 02:10:54;;;;;;;;;;;;;;;;;;5068931;28;19939;-57
2022/05/28 02:13:20;;;;;;;;;;;;;;;;;;5070153;28;19908;-57
2022/05/28 02:15:47;;;;;;;;;;;;;;;;;;5070075;28;19918;-57
2022/05/28 02:18:13;;;;;;;;;;;;;;;;;;5069320;28;19911;-57
2022/05/28 02:20:39;;;;;;;;;;;;;;;;;;5067271;28;20513;-57
2022/05/28 02:23:05;;;;;;;;;;;;;;;;;;5069587;28;19905;-57
2022/05/28 02:25:31;;;;;;;;;;;;;;;;;;5069017;28;19927;-57
2022/05/28 02:27:57;;;;;;;;;;;;;;;;;;5069556;28;19904;-57
2022/05/28 02:30:23;;;;;;;;;;;;;;;;;;5074008;28;19953;-57
2022/05/28 02:32:49;;;;;;;;;;;;;;;;;;5089056;28;19969;-57
2022/05/28 02:35:15;;;;;;;;;;;;;;;;;;5080635;28;19911;-57
2022/05/28 02:37:41;;;;;;;;;;;;;;;;;;5068966;28;19909;-57
2022/05/28 02:40:07;;;;;;;;;;;;;;;;;;5069064;28;20005;-57
2022/05/28 02:42:33;;;;;;;;;;;;;;;;;;5069588;28;19905;-57
2022/05/28 02:44:59;;;;;;;;;;;;;;;;;;5069704;28;19916;-57
2022/05/28 02:47:25;;;;;;;;;;;;;;;;;;5068515;28;19904;-57
2022/05/28 02:49:51;;;;;;;;;;;;;;;;;;5067963;28;19910;-57
2022/05/28 02:52:17;;;;;;;;;;;;;;;;;;5068914;28;19990;-57
2022/05/28 02:54:43;;;;;;;;;;;;;;;;;;5068531;28;19916;-57
2022/05/28 02:57:09;;;;;;;;;;;;;;;;;;5068917;28;19908;-57
2022/05/28 02:59:35;;;;;;;;;;;;;;;;;;5067853;28;20294;-57
2022/05/28 03:02:02;;;;;;;;;;;;;;;;;;5068444;28;19908;-57
2022/05/28 03:04:28;;;;;;;;;;;;;;;;;;5068526;28;19904;-57
2022/05/28 03:06:54;;;;;;;;;;;;;;;;;;5068767;28;19914;-57
2022/05/28 03:09:20;;;;;;;;;;;;;;;;;;5068568;28;19915;-57
2022/05/28 03:11:46;;;;;;;;;;;;;;;;;;5067169;28;20422;-57
2022/05/28 03:14:12;;;;;;;;;;;;;;;;;;5068414;28;20574;-57
2022/05/28 03:16:38;;;;;;;;;;;;;;;;;;5068020;28;19904;-57
2022/05/28 03:19:04;;;;;;;;;;;;;;;;;;5068399;28;20430;-57
2022/05/28 03:21:31;;;;;;;;;;;;;;;;;;5068753;28;19908;-57
2022/05/28 03:23:57;;;;;;;;;;;;;;;;;;5068223;28;19951;-57
2022/05/28 03:26:23;;;;;;;;;;;;;;;;;;5066246;28;19982;-57
2022/05/28 03:28:49;;;;;;;;;;;;;;;;;;5067900;28;20398;-57
2022/05/28 03:31:15;;;;;;;;;;;;;;;;;;5068162;28;19904;-57
2022/05/28 03:33:41;;;;;;;;;;;;;;;;;;5067886;28;20561;-57
2022/05/28 03:36:07;;;;;;;;;;;;;;;;;;5068284;28;19904;-57
2022/05/28 03:38:33;;;;;;;;;;;;;;;;;;5068223;28;19912;-56
2022/05/28 03:40:59;;;;;;;;;;;;;;;;;;5067366;28;19965;-57
2022/05/28 03:43:25;;;;;;;;;;;;;;;;;;5067858;28;19908;-57
2022/05/28 03:45:51;;;;;;;;;;;;;;;;;;5066563;28;19904;-57
2022/05/28 03:48:17;;;;;;;;;;;;;;;;;;5067680;28;19905;-57
2022/05/28 03:50:43;;;;;;;;;;;;;;;;;;5067430;28;19915;-57
2022/05/28 03:53:09;;;;;;;;;;;;;;;;;;5067072;28;19908;-57
2022/05/28 03:55:35;;;;;;;;;;;;;;;;;;5067564;28;19930;-57
2022/05/28 03:58:01;;;;;;;;;;;;;;;;;;5067415;28;19994;-57
2022/05/28 04:00:26;;;;;;;;;;;;;;;;;;5066890;28;19958;-57
2022/05/28 04:02:52;;;;;;;;;;;;;;;;;;5067331;28;19931;-57
2022/05/28 04:05:18;;;;;;;;;;;;;;;;;;5066898;28;19908;-57
2022/05/28 04:07:44;;;;;;;;;;;;;;;;;;5067392;28;19961;-57
2022/05/28 04:10:10;;;;;;;;;;;;;;;;;;5067379;28;19912;-56
2022/05/28 04:12:36;;;;;;;;;;;;;;;;;;5067156;28;19905;-57
2022/05/28 04:15:02;;;;;;;;;;;;;;;;;;5067959;28;20324;-57
2022/05/28 04:17:29;;;;;;;;;;;;;;;;;;5067165;28;19907;-57
2022/05/28 04:19:55;;;;;;;;;;;;;;;;;;5065763;28;19912;-57
2022/05/28 04:22:21;;;;;;;;;;;;;;;;;;5066130;28;19905;-57
2022/05/28 04:24:47;;;;;;;;;;;;;;;;;;5066737;28;19908;-57
2022/05/28 04:27:13;;;;;;;;;;;;;;;;;;5067271;28;19915;-57
2022/05/28 04:29:39;;;;;;;;;;;;;;;;;;5067139;28;19999;-57
2022/05/28 04:32:05;;;;;;;;;;;;;;;;;;5067063;28;19950;-57
2022/05/28 04:34:31;;;;;;;;;;;;;;;;;;5067289;28;19912;-57
2022/05/28 04:36:56;;;;;;;;;;;;;;;;;;5066968;28;19974;-57
2022/05/28 04:39:22;;;;;;;;;;;;;;;;;;5066367;28;19912;-57
2022/05/28 04:41:48;;;;;;;;;;;;;;;;;;5066783;28;19961;-57
2022/05/28 04:44:14;;;;;;;;;;;;;;;;;;5067044;28;19915;-57
2022/05/28 04:46:40;;;;;;;;;;;;;;;;;;5066395;28;19908;-57
2022/05/28 04:49:06;;;;;;;;;;;;;;;;;;5066930;28;19980;-57
2022/05/28 04:51:32;;;;;;;;;;;;;;;;;;5067041;28;19966;-57
2022/05/28 04:53:58;;;;;;;;;;;;;;;;;;5064943;28;19954;-57
2022/05/28 04:56:24;;;;;;;;;;;;;;;;;;5066970;28;20673;-57
2022/05/28 04:58:50;;;;;;;;;;;;;;;;;;5066621;28;19915;-57
2022/05/28 05:01:16;;;;;;;;;;;;;;;;;;5066676;28;19908;-56
2022/05/28 05:03:42;;;;;;;;;;;;;;;;;;5066470;28;19911;-57
2022/05/28 05:06:09;;;;;;;;;;;;;;;;;;5065692;28;19908;-57
2022/05/28 05:08:35;;;;;;;;;;;;;;;;;;5066442;28;19912;-57
2022/05/28 05:11:01;;;;;;;;;;;;;;;;;;5071605;28;19915;-57
2022/05/28 05:13:27;;;;;;;;;;;;;;;;;;5070323;28;19909;-57
2022/05/28 05:15:52;;;;;;;;;;;;;;;;;;5069447;28;19908;-57
2022/05/28 05:18:18;;;;;;;;;;;;;;;;;;5070538;28;19912;-57
2022/05/28 05:20:44;;;;;;;;;;;;;;;;;;5070215;28;19904;-57
2022/05/28 05:23:10;;;;;;;;;;;;;;;;;;5070523;28;19908;-56
2022/05/28 05:25:37;;;;;;;;;;;;;;;;;;5070296;28;19977;-57
2022/05/28 05:28:03;;;;;;;;;;;;;;;;;;5071286;28;20429;-57
2022/05/28 05:30:29;;;;;;;;;;;;;;;;;;5069541;28;20003;-57
2022/05/28 05:32:55;;;;;;;;;;;;;;;;;;5070430;28;19994;-57
2022/05/28 05:35:21;;;;;;;;;;;;;;;;;;5070255;28;19908;-57
2022/05/28 05:37:47;;;;;;;;;;;;;;;;;;5070115;28;19911;-57
2022/05/28 05:40:13;;;;;;;;;;;;;;;;;;5070111;28;19959;-57
2022/05/28 05:42:39;;;;;;;;;;;;;;;;;;5069962;28;19970;-57
2022/05/28 05:45:05;;;;;;;;;;;;;;;;;;5069106;28;19908;-57
2022/05/28 05:47:31;;;;;;;;;;;;;;;;;;5069497;28;19912;-57
2022/05/28 05:49:57;;;;;;;;;;;;;;;;;;5068910;28;19908;-57
2022/05/28 05:52:23;;;;;;;;;;;;;;;;;;5069945;28;20042;-55
2022/05/28 05:54:49;;;;;;;;;;;;;;;;;;5069789;28;19949;-57
2022/05/28 05:57:14;;;;;;;;;;;;;;;;;;5070017;28;19905;-57
2022/05/28 05:59:40;;;;;;;;;;;;;;;;;;5069174;28;19934;-57
2022/05/28 06:02:06;;;;;;;;;;;;;;;;;;5066810;28;20010;-57
2022/05/28 06:04:32;;;;;;;;;;;;;;;;;;5069884;28;19909;-57
2022/05/28 06:06:58;;;;;;;;;;;;;;;;;;5068467;28;19905;-57
2022/05/28 06:09:25;;;;;;;;;;;;;;;;;;5069176;28;19908;-57
2022/05/28 06:11:52;;;;;;;;;;;;;;;;;;5067328;28;19920;-57
2022/05/28 06:14:18;;;;;;;;;;;;;;;;;;5069671;28;20360;-57
2022/05/28 06:16:44;;;;;;;;;;;;;;;;;;5069169;28;19912;-57
2022/05/28 06:19:10;;;;;;;;;;;;;;;;;;5068658;28;19904;-57
2022/05/28 06:21:36;;;;;;;;;;;;;;;;;;5067849;28;19915;-57
2022/05/28 06:24:01;;;;;;;;;;;;;;;;;;5069153;28;19912;-57
2022/05/28 06:26:28;;;;;;;;;;;;;;;;;;5069516;28;19943;-57
2022/05/28 06:28:54;;;;;;;;;;;;;;;;;;5068178;28;20927;-57
2022/05/28 06:31:20;;;;;;;;;;;;;;;;;;5086292;28;19957;-57
2022/05/28 06:33:46;;;;;;;;;;;;;;;;;;5089415;28;19989;-57
2022/05/28 06:36:12;;;;;;;;;;;;;;;;;;5069304;28;19905;-57
2022/05/28 06:38:38;;;;;;;;;;;;;;;;;;5067051;28;19915;-57
2022/05/28 06:41:04;;;;;;;;;;;;;;;;;;5068605;28;19915;-57
2022/05/28 06:43:31;;;;;;;;;;;;;;;;;;5069451;28;19904;-57
2022/05/28 06:45:57;;;;;;;;;;;;;;;;;;5068720;28;19991;-57
2022/05/28 06:48:23;;;;;;;;;;;;;;;;;;5066135;28;19966;-57
2022/05/28 06:51:04;;;;;;;;;;;;;;;;;;5067583;28;19912;-57
2022/05/28 06:53:30;;;;;;;;;;;;;;;;;;5069153;28;20021;-57
2022/05/28 06:55:56;;;;;;;;;;;;;;;;;;5068499;28;19924;-57
2022/05/28 06:58:21;;;;;;;;;;;;;;;;;;5067890;28;19912;-57
2022/05/28 07:00:47;;;;;;;;;;;;;;;;;;5067371;28;19918;-57
2022/05/28 07:03:13;;;;;;;;;;;;;;;;;;5066620;28;19995;-58
2022/05/28 07:05:39;;;;;;;;;;;;;;;;;;5068528;28;19928;-57
2022/05/28 07:08:05;;;;;;;;;;;;;;;;;;5068583;28;19908;-57
2022/05/28 07:10:31;;;;;;;;;;;;;;;;;;5065782;28;19917;-57
2022/05/28 07:12:57;;;;;;;;;;;;;;;;;;5066795;28;19990;-57
2022/05/28 07:15:23;;;;;;;;;;;;;;;;;;5062449;28;20011;-57
2022/05/28 07:17:49;;;;;;;;;;;;;;;;;;5068091;28;19904;-57
2022/05/28 07:20:15;;;;;;;;;;;;;;;;;;5067122;28;19977;-57
2022/05/28 07:22:41;;;;;;;;;;;;;;;;;;5066936;28;19912;-57
2022/05/28 07:25:08;;;;;;;;;;;;;;;;;;5068778;28;19909;-57
2022/05/28 07:27:34;;;;;;;;;;;;;;;;;;5068741;28;19911;-57
2022/05/28 07:30:00;;;;;;;;;;;;;;;;;;5067306;28;19908;-57
2022/05/28 07:32:29;;;;;;;;;;;;;;;;;;5067909;28;19912;-57
2022/05/28 07:34:55;;;;;;;;;;;;;;;;;;5068126;28;20390;-57
2022/05/28 07:37:21;;;;;;;;;;;;;;;;;;5068296;28;19909;-57
2022/05/28 07:39:47;;;;;;;;;;;;;;;;;;5067521;28;19915;-57
2022/05/28 07:42:13;;;;;;;;;;;;;;;;;;5067799;28;19909;-57
2022/05/28 07:44:40;;;;;;;;;;;;;;;;;;5067355;28;19912;-57
2022/05/28 07:47:06;;;;;;;;;;;;;;;;;;5067688;28;19948;-58
2022/05/28 07:49:31;;;;;;;;;;;;;;;;;;5064102;28;19962;-57
2022/05/28 07:51:57;;;;;;;;;;;;;;;;;;5065123;28;19915;-57
2022/05/28 07:54:23;;;;;;;;;;;;;;;;;;5064376;28;19994;-57
2022/05/28 07:56:49;;;;;;;;;;;;;;;;;;5065493;28;19904;-57
2022/05/28 07:59:16;;;;;;;;;;;;;;;;;;5065627;28;19904;-57
2022/05/28 08:01:43;;;;;;;;;;;;;;;;;;5064545;28;19947;-57
2022/05/28 08:04:10;;;;;;;;;;;;;;;;;;5065730;28;19991;-57
2022/05/28 08:06:36;;;;;;;;;;;;;;;;;;5065644;28;19912;-57
2022/05/28 08:09:03;;;;;;;;;;;;;;;;;;5066625;28;19909;-57
2022/05/28 08:11:29;;;;;;;;;;;;;;;;;;5066054;28;20449;-57
2022/05/28 08:13:54;;;;;;;;;;;;;;;;;;5065828;28;19913;-57
2022/05/28 08:16:20;;;;;;;;;;;;;;;;;;5065627;28;19904;-57
2022/05/28 08:18:46;;;;;;;;;;;;;;;;;;5065209;28;20307;-57
2022/05/28 08:23:57;;;;;;;;;;;;;;;;;;5065564;28;20019;-57
2022/05/28 08:26:24;;;;;;;;;;;;;;;;;;5065655;28;19991;-57
2022/05/28 08:28:50;;;;;;;;;;;;;;;;;;5078141;28;19904;-57
2022/05/28 08:31:15;;;;;;;;;;;;;;;;;;5074742;28;19966;-57
2022/05/28 08:33:42;;;;;;;;;;;;;;;;;;5064216;28;19912;-57
2022/05/28 08:36:07;;;;;;;;;;;;;;;;;;5065529;28;20403;-58
2022/05/28 08:38:33;;;;;;;;;;;;;;;;;;5065105;28;19961;-57
2022/05/28 08:40:59;;;;;;;;;;;;;;;;;;5064386;28;20000;-57
2022/05/28 08:43:25;;;;;;;;;;;;;;;;;;5064636;28;19904;-57
2022/05/28 08:45:52;;;;;;;;;;;;;;;;;;5065076;28;20446;-57
2022/05/28 08:48:20;;;;;;;;;;;;;;;;;;5065492;28;20294;-57
2022/05/28 08:50:47;;;;;;;;;;;;;;;;;;5065089;28;19909;-57
2022/05/28 08:53:13;;;;;;;;;;;;;;;;;;5065880;28;19919;-57
2022/05/28 08:55:39;;;;;;;;;;;;;;;;;;5064746;28;19905;-57
2022/05/28 08:58:05;;;;;;;;;;;;;;;;;;5065104;28;20386;-57
2022/05/28 09:00:31;;;;;;;;;;;;;;;;;;5064894;28;19982;-57
2022/05/28 09:02:57;;;;;;;;;;;;;;;;;;5064884;28;19969;-57
2022/05/28 09:05:23;;;;;;;;;;;;;;;;;;5065022;28;19919;-57
2022/05/28 09:07:50;;;;;;;;;;;;;;;;;;5064859;28;19908;-57
2022/05/28 09:10:17;;;;;;;;;;;;;;;;;;5065495;28;20033;-57
2022/05/28 09:12:42;;;;;;;;;;;;;;;;;;5065213;28;20342;-57
2022/05/28 09:15:08;;;;;;;;;;;;;;;;;;5065054;28;19919;-57
2022/05/28 09:17:35;;;;;;;;;;;;;;;;;;5064866;28;19905;-57
2022/05/28 09:20:01;;;;;;;;;;;;;;;;;;5064869;28;20446;-57
2022/05/28 09:22:28;;;;;;;;;;;;;;;;;;5065074;28;19915;-57
2022/05/28 09:24:54;;;;;;;;;;;;;;;;;;5065021;28;19905;-57
2022/05/28 09:27:20;;;;;;;;;;;;;;;;;;5064841;28;19905;-58
2022/05/28 09:29:47;;;;;;;;;;;;;;;;;;5065218;28;20371;-57
2022/05/28 09:32:13;;;;;;;;;;;;;;;;;;5066017;28;19912;-57
2022/05/28 09:34:39;;;;;;;;;;;;;;;;;;5064661;28;20323;-57
2022/05/28 09:37:05;;;;;;;;;;;;;;;;;;5064964;28;19904;-57
2022/05/28 09:39:30;;;;;;;;;;;;;;;;;;5062966;28;19927;-57
2022/05/28 09:41:56;;;;;;;;;;;;;;;;;;5064910;28;19904;-57
2022/05/28 09:44:22;;;;;;;;;;;;;;;;;;5064616;28;19920;-58
2022/05/28 09:46:48;;;;;;;;;;;;;;;;;;5064549;28;19908;-57
2022/05/28 09:49:14;;;;;;;;;;;;;;;;;;5065370;28;20038;-57
2022/05/28 09:51:41;;;;;;;;;;;;;;;;;;5064293;28;19961;-57
2022/05/28 09:54:23;;;;;;;;;;;;;;;;;;5064509;28;20514;-57
2022/05/28 09:56:49;;;;;;;;;;;;;;;;;;5068104;28;20241;-58
2022/05/28 09:59:15;;;;;;;;;;;;;;;;;;5068702;28;19909;-57
2022/05/28 10:01:42;;;;;;;;;;;;;;;;;;5067935;28;19973;-57
2022/05/28 10:07:03;;;;;;;;;;;;;;;;;;5063373;28;19965;-57
2022/05/28 10:09:29;;;;;;;;;;;;;;;;;;5067653;28;19904;-58
2022/05/28 10:11:55;;;;;;;;;;;;;;;;;;5068306;28;19957;-57
2022/05/28 10:14:22;;;;;;;;;;;;;;;;;;5067950;28;19908;-57
2022/05/28 10:16:49;;;;;;;;;;;;;;;;;;5067716;28;19908;-58
2022/05/28 10:19:15;;;;;;;;;;;;;;;;;;5068386;28;19905;-57
2022/05/28 10:21:41;;;;;;;;;;;;;;;;;;5067932;28;19905;-58
2022/05/28 10:24:08;;;;;;;;;;;;;;;;;;5068297;28;19909;-57
2022/05/28 10:26:36;;;;;;;;;;;;;;;;;;5082447;28;20123;-58
2022/05/28 10:29:02;;;;;;;;;;;;;;;;;;5073939;28;20389;-57
2022/05/28 10:31:27;;;;;;;;;;;;;;;;;;5066807;28;19919;-57
2022/05/28 10:33:53;;;;;;;;;;;;;;;;;;5064879;28;20006;-57
2022/05/28 10:36:19;;;;;;;;;;;;;;;;;;5066309;28;19911;-57
2022/05/28 10:38:46;;;;;;;;;;;;;;;;;;5068053;28;19904;-57
2022/05/28 10:41:12;;;;;;;;;;;;;;;;;;5068427;28;19935;-57
2022/05/28 10:43:38;;;;;;;;;;;;;;;;;;5065917;28;19912;-57
2022/05/28 10:46:04;;;;;;;;;;;;;;;;;;5066917;28;19999;-57
2022/05/28 10:48:30;;;;;;;;;;;;;;;;;;5069376;28;19966;-57
2022/05/28 10:50:56;;;;;;;;;;;;;;;;;;5069951;28;19908;-57
2022/05/28 10:53:22;;;;;;;;;;;;;;;;;;5066524;28;19999;-57
2022/05/28 10:55:48;;;;;;;;;;;;;;;;;;5069935;28;19908;-58
2022/05/28 10:58:14;;;;;;;;;;;;;;;;;;5058585;28;19908;-57
2022/05/28 11:00:40;;;;;;;;;;;;;;;;;;5069525;28;19909;-57
2022/05/28 11:03:06;;;;;;;;;;;;;;;;;;5069702;28;19955;-58
2022/05/28 11:05:32;;;;;;;;;;;;;;;;;;5069663;28;19957;-57
2022/05/28 11:07:58;;;;;;;;;;;;;;;;;;5069644;28;19973;-57
2022/05/28 11:10:24;;;;;;;;;;;;;;;;;;5069265;28;19916;-57
2022/05/28 11:12:51;;;;;;;;;;;;;;;;;;5069465;28;20350;-57
2022/05/28 11:15:17;;;;;;;;;;;;;;;;;;5069570;28;20008;-57
2022/05/28 11:17:43;;;;;;;;;;;;;;;;;;5069075;28;20001;-58
2022/05/28 11:20:09;;;;;;;;;;;;;;;;;;5069452;28;19915;-57
2022/05/28 11:22:35;;;;;;;;;;;;;;;;;;5069187;28;19904;-57
2022/05/28 11:25:10;;;;;;;;;;;;;;;;;;5074942;28;19908;-58
2022/05/28 11:27:36;;;;;;;;;;;;;;;;;;5068368;28;20336;-57
2022/05/28 11:30:02;;;;;;;;;;;;;;;;;;5069123;28;19995;-58
2022/05/28 11:32:27;;;;;;;;;;;;;;;;;;5068554;28;19908;-58
2022/05/28 11:34:53;;;;;;;;;;;;;;;;;;5068623;28;20003;-58
2022/05/28 11:37:19;;;;;;;;;;;;;;;;;;5068878;28;19912;-58
2022/05/28 11:39:45;;;;;;;;;;;;;;;;;;5068901;28;19947;-58
2022/05/28 11:42:12;;;;;;;;;;;;;;;;;;5069311;28;19908;-58
2022/05/28 11:44:37;;;;;;;;;;;;;;;;;;5068658;28;20388;-58
2022/05/28 11:47:03;;;;;;;;;;;;;;;;;;5066133;28;20006;-59
2022/05/28 11:52:14;;;;;;;;;;;;;;;;;;5067349;28;19916;-58
2022/05/28 11:54:40;;;;;;;;;;;;;;;;;;5065918;28;19964;-57
2022/05/28 11:57:06;;;;;;;;;;;;;;;;;;5066936;28;19908;-57
2022/05/28 11:59:32;;;;;;;;;;;;;;;;;;5067598;28;20054;-58
2022/05/28 12:01:59;;;;;;;;;;;;;;;;;;5067158;28;19901;-57
2022/05/28 12:04:25;;;;;;;;;;;;;;;;;;5066276;28;19911;-58
2022/05/28 12:06:51;;;;;;;;;;;;;;;;;;5066208;28;19904;-60
2022/05/28 12:09:18;;;;;;;;;;;;;;;;;;5066408;28;20280;-58
2022/05/28 12:11:44;;;;;;;;;;;;;;;;;;5065821;28;20367;-58
2022/05/28 12:14:10;;;;;;;;;;;;;;;;;;5066282;28;19908;-58
2022/05/28 12:16:36;;;;;;;;;;;;;;;;;;5065565;28;20050;-59
2022/05/28 12:19:04;;;;;;;;;;;;;;;;;;5065335;28;19912;-59
2022/05/28 12:21:30;;;;;;;;;;;;;;;;;;5066461;28;19928;-58
2022/05/28 12:23:56;;;;;;;;;;;;;;;;;;5068078;28;19915;-58
2022/05/28 12:26:45;;;;;;;;;;;;;;;;;;5086768;28;19908;-59
2022/05/28 12:29:10;;;;;;;;;;;;;;;;;;5079039;28;20128;-60
2022/05/28 12:31:37;;;;;;;;;;;;;;;;;;5064262;28;20025;-59
2022/05/28 12:34:05;;;;;;;;;;;;;;;;;;5065845;28;20280;-59
2022/05/28 12:36:31;;;;;;;;;;;;;;;;;;5066292;28;19950;-59
2022/05/28 12:38:57;;;;;;;;;;;;;;;;;;5066411;28;20317;-60
2022/05/28 12:41:24;;;;;;;;;;;;;;;;;;5065826;28;20272;-59
2022/05/28 12:43:50;;;;;;;;;;;;;;;;;;5065543;28;19957;-59
2022/05/28 12:46:17;;;;;;;;;;;;;;;;;;5064023;28;20306;-59
2022/05/28 12:48:44;;;;;;;;;;;;;;;;;;5065484;28;19912;-59
2022/05/28 12:51:09;;;;;;;;;;;;;;;;;;5065562;28;20394;-59
2022/05/28 12:53:35;;;;;;;;;;;;;;;;;;5064827;28;19912;-59
2022/05/28 12:56:02;;;;;;;;;;;;;;;;;;5066091;28;20036;-59
2022/05/28 12:58:28;;;;;;;;;;;;;;;;;;5065817;28;19905;-59
2022/05/28 13:00:54;;;;;;;;;;;;;;;;;;5065243;28;20002;-59
2022/05/28 13:03:20;;;;;;;;;;;;;;;;;;5065415;28;19904;-59
2022/05/28 13:05:46;;;;;;;;;;;;;;;;;;5065156;28;20407;-59
2022/05/28 13:08:12;;;;;;;;;;;;;;;;;;5065665;28;20105;-59
2022/05/28 13:10:38;;;;;;;;;;;;;;;;;;5065443;28;19912;-59
2022/05/28 13:13:04;;;;;;;;;;;;;;;;;;5065612;28;19919;-59
2022/05/28 13:15:31;;;;;;;;;;;;;;;;;;5065717;28;20002;-59
2022/05/28 13:17:57;;;;;;;;;;;;;;;;;;5065192;28;19966;-59
2022/05/28 13:20:24;;;;;;;;;;;;;;;;;;5065390;28;19905;-59
2022/05/28 13:22:50;;;;;;;;;;;;;;;;;;5065427;28;19991;-59
2022/05/28 13:25:16;;;;;;;;;;;;;;;;;;5065619;28;19904;-59
2022/05/28 13:27:42;;;;;;;;;;;;;;;;;;5065095;28;19919;-59
2022/05/28 13:30:09;;;;;;;;;;;;;;;;;;5066314;28;20326;-59
2022/05/28 13:32:36;;;;;;;;;;;;;;;;;;5068832;28;19931;-59
2022/05/28 13:35:02;;;;;;;;;;;;;;;;;;5069139;28;20384;-60
2022/05/28 13:37:28;;;;;;;;;;;;;;;;;;5069659;28;19915;-59
2022/05/28 13:39:55;;;;;;;;;;;;;;;;;;5069085;28;19914;-59
2022/05/28 13:42:21;;;;;;;;;;;;;;;;;;5069339;28;19952;-59
2022/05/28 13:44:47;;;;;;;;;;;;;;;;;;5068613;28;20365;-60
2022/05/28 13:47:14;;;;;;;;;;;;;;;;;;5068552;28;19916;-58
2022/05/28 13:49:39;;;;;;;;;;;;;;;;;;5068811;28;19904;-60
2022/05/28 13:52:05;;;;;;;;;;;;;;;;;;5068897;28;19904;-59
2022/05/28 13:54:32;;;;;;;;;;;;;;;;;;5069043;28;19973;-59
2022/05/28 13:56:59;;;;;;;;;;;;;;;;;;5069383;28;19904;-60
2022/05/28 13:59:26;;;;;;;;;;;;;;;;;;5068489;28;19908;-58
2022/05/28 14:01:52;;;;;;;;;;;;;;;;;;5068531;28;19912;-59
2022/05/28 14:04:19;;;;;;;;;;;;;;;;;;5068659;28;19908;-59
2022/05/28 14:06:45;;;;;;;;;;;;;;;;;;5068240;28;20476;-59
2022/05/28 14:09:11;;;;;;;;;;;;;;;;;;5068606;28;19904;-59
2022/05/28 14:11:37;;;;;;;;;;;;;;;;;;5068323;28;19911;-59
2022/05/28 14:14:03;;;;;;;;;;;;;;;;;;5068430;28;19916;-59
2022/05/28 14:16:29;;;;;;;;;;;;;;;;;;5068429;28;19980;-58
2022/05/28 14:18:55;;;;;;;;;;;;;;;;;;5068259;28;19904;-59
2022/05/28 14:21:22;;;;;;;;;;;;;;;;;;5068743;28;19911;-58
2022/05/28 14:23:48;;;;;;;;;;;;;;;;;;5068442;28;19912;-59
2022/05/28 14:26:13;;;;;;;;;;;;;;;;;;5068090;28;19931;-59
2022/05/28 14:28:39;;;;;;;;;;;;;;;;;;5068005;28;19905;-61
2022/05/28 14:31:06;;;;;;;;;;;;;;;;;;5067841;28;19904;-60
2022/05/28 14:33:33;;;;;;;;;;;;;;;;;;5067846;28;19913;-59
2022/05/28 14:35:59;;;;;;;;;;;;;;;;;;5068796;28;19930;-59
2022/05/28 14:38:25;;;;;;;;;;;;;;;;;;5068146;28;19905;-59
2022/05/28 14:40:52;;;;;;;;;;;;;;;;;;5067751;28;19943;-58
2022/05/28 14:43:20;;;;;;;;;;;;;;;;;;5067687;28;19958;-59
2022/05/28 14:45:47;;;;;;;;;;;;;;;;;;5067349;28;20379;-59
2022/05/28 14:48:14;;;;;;;;;;;;;;;;;;5067890;28;19916;-59
2022/05/28 14:50:40;;;;;;;;;;;;;;;;;;5067629;28;19912;-60
2022/05/28 14:53:05;;;;;;;;;;;;;;;;;;5067690;28;19908;-59
2022/05/28 14:55:32;;;;;;;;;;;;;;;;;;5068074;28;20360;-58
2022/05/28 14:57:58;;;;;;;;;;;;;;;;;;5068150;28;19911;-58
2022/05/28 15:00:24;;;;;;;;;;;;;;;;;;5067336;28;19904;-59
2022/05/28 15:02:50;;;;;;;;;;;;;;;;;;5067422;28;20314;-58
2022/05/28 15:05:17;;;;;;;;;;;;;;;;;;5067618;28;19900;-59
2022/05/28 15:07:43;;;;;;;;;;;;;;;;;;5067253;28;20425;-60
2022/05/28 15:10:09;;;;;;;;;;;;;;;;;;5067638;28;19900;-59
2022/05/28 15:12:35;;;;;;;;;;;;;;;;;;5067296;28;20390;-59
2022/05/28 15:15:02;;;;;;;;;;;;;;;;;;5067514;28;19915;-59
2022/05/28 15:17:29;;;;;;;;;;;;;;;;;;5067838;28;19904;-60
2022/05/28 15:19:55;;;;;;;;;;;;;;;;;;5067211;28;19904;-59
2022/05/28 15:22:22;;;;;;;;;;;;;;;;;;5067508;28;19911;-58
2022/05/28 15:24:48;;;;;;;;;;;;;;;;;;5064527;28;19923;-59
2022/05/28 15:27:14;;;;;;;;;;;;;;;;;;5064205;28;19927;-60
2022/05/28 15:29:41;;;;;;;;;;;;;;;;;;5065430;28;19959;-58
2022/05/28 15:32:07;;;;;;;;;;;;;;;;;;5068042;28;19912;-61
2022/05/28 15:34:32;;;;;;;;;;;;;;;;;;5067791;28;19920;-59
2022/05/28 15:39:44;;;;;;;;;;;;;;;;;;5066637;28;19924;-59
2022/05/28 15:42:10;;;;;;;;;;;;;;;;;;5066620;28;19908;-59
2022/05/28 15:44:36;;;;;;;;;;;;;;;;;;5067918;28;20020;-60
2022/05/28 15:47:02;;;;;;;;;;;;;;;;;;5068653;28;19950;-60
2022/05/28 15:49:28;;;;;;;;;;;;;;;;;;5067749;28;19912;-59
2022/05/28 15:51:54;;;;;;;;;;;;;;;;;;5068552;28;19961;-59
2022/05/28 15:54:20;;;;;;;;;;;;;;;;;;5077475;28;19916;-61
2022/05/28 15:56:47;;;;;;;;;;;;;;;;;;5080194;28;19908;-62
2022/05/28 15:59:13;;;;;;;;;;;;;;;;;;5065856;28;20003;-61
2022/05/28 16:01:39;;;;;;;;;;;;;;;;;;5067415;28;19908;-61
2022/05/28 16:04:05;;;;;;;;;;;;;;;;;;5068092;28;20283;-60
2022/05/28 16:06:31;;;;;;;;;;;;;;;;;;5077981;28;19904;-64
2022/05/28 16:08:57;;;;;;;;;;;;;;;;;;5088220;28;19904;-61
2022/05/28 16:11:26;;;;;;;;;;;;;;;;;;5088519;28;19927;-61
2022/05/28 16:13:52;;;;;;;;;;;;;;;;;;5067155;28;20617;-61
2022/05/28 16:16:18;;;;;;;;;;;;;;;;;;5067545;28;19909;-61
2022/05/28 16:18:44;;;;;;;;;;;;;;;;;;5094248;28;19954;-60
2022/05/28 16:21:10;;;;;;;;;;;;;;;;;;5088026;28;19904;-59
2022/05/28 16:23:36;;;;;;;;;;;;;;;;;;5078127;28;19961;-60
2022/05/28 16:26:02;;;;;;;;;;;;;;;;;;5059077;28;19915;-60
2022/05/28 16:28:28;;;;;;;;;;;;;;;;;;5067267;28;19920;-60
2022/05/28 16:30:54;;;;;;;;;;;;;;;;;;5066473;28;19918;-60
2022/05/28 16:33:20;;;;;;;;;;;;;;;;;;5066424;28;20242;-60
2022/05/28 16:35:46;;;;;;;;;;;;;;;;;;5065848;28;19912;-60
2022/05/28 16:38:12;;;;;;;;;;;;;;;;;;5067323;28;19915;-60
2022/05/28 16:40:38;;;;;;;;;;;;;;;;;;5067334;28;19911;-60
2022/05/28 16:43:07;;;;;;;;;;;;;;;;;;5066989;28;19914;-58
2022/05/28 16:45:33;;;;;;;;;;;;;;;;;;5067501;28;20727;-61
2022/05/28 16:47:58;;;;;;;;;;;;;;;;;;5066620;28;19908;-60
2022/05/28 16:50:25;;;;;;;;;;;;;;;;;;5066068;28;19913;-60
2022/05/28 16:52:51;;;;;;;;;;;;;;;;;;5064370;28;19959;-60